Time;durP1;ratioP1;P1;durP2;ratioP2;P2;SDS_P1;SDS_P2;PMS_P1;PMS_P2;Temp;Humidity;BMP_temperature;BMP_pressure;BME280_temperature;BME280_humidity;BME280_pressure;Samples;Min_cycle;Max_cycle;Signal;HPM_P1;HPM_P2
2023/12/24 00:01:07;;;;;;;18.35;3.47;;;10.30;99.90;;;;;;5105538;28;20040;-59
2023/12/24 00:03:33;;;;;;;22.17;3.65;;;10.20;99.90;;;;;;5090673;28;20046;-60
2023/12/24 00:05:59;;;;;;;15.98;2.70;;;10.60;99.90;;;;;;5090614;28;20075;-60
2023/12/24 00:08:26;;;;;;;19.52;2.78;;;10.10;99.90;;;;;;5091127;28;20034;-60
2023/12/24 00:10:51;;;;;;;18.48;3.30;;;10.50;99.90;;;;;;5090675;28;20048;-59
2023/12/24 00:13:17;;;;;;;17.05;3.55;;;10.40;99.90;;;;;;5090606;28;20036;-58
2023/12/24 00:15:42;;;;;;;14.68;2.88;;;10.50;99.90;;;;;;5090132;28;20228;-59
2023/12/24 00:18:08;;;;;;;11.32;2.92;;;10.20;99.90;;;;;;5090988;28;20081;-58
2023/12/24 00:20:34;;;;;;;15.18;3.15;;;10.50;99.90;;;;;;5090961;28;20364;-58
2023/12/24 00:23:07;;;;;;;19.70;3.00;;;9.90;99.90;;;;;;5090719;28;20483;-58
2023/12/24 00:25:38;;;;;;;16.33;2.77;;;10.60;99.90;;;;;;5090753;28;20036;-58
2023/12/24 00:28:04;;;;;;;13.25;2.58;;;10.30;99.90;;;;;;5090659;28;20040;-57
2023/12/24 00:30:30;;;;;;;16.33;4.35;;;10.00;99.90;;;;;;5090509;28;20048;-58
2023/12/24 00:32:57;;;;;;;17.20;3.05;;;10.10;99.90;;;;;;5090798;28;20029;-57
2023/12/24 00:35:24;;;;;;;16.20;3.08;;;10.60;99.90;;;;;;5090743;28;20044;-57
2023/12/24 00:37:50;;;;;;;17.30;3.38;;;10.00;99.90;;;;;;5090585;28;20063;-58
2023/12/24 00:40:17;;;;;;;13.23;2.70;;;10.40;99.90;;;;;;5090690;28;20032;-57
2023/12/24 00:42:43;;;;;;;15.02;2.85;;;10.10;99.90;;;;;;5090777;28;20040;-58
2023/12/24 00:45:10;;;;;;;12.77;2.25;;;10.60;99.90;;;;;;5090226;28;20379;-58
2023/12/24 00:47:36;;;;;;;15.65;3.08;;;10.60;99.90;;;;;;5090244;28;20181;-58
2023/12/24 00:50:03;;;;;;;13.13;2.42;;;10.70;99.90;;;;;;5090165;28;20400;-57
2023/12/24 00:52:29;;;;;;;13.93;2.45;;;10.70;99.90;;;;;;5091835;28;20056;-58
2023/12/24 00:54:54;;;;;;;18.17;2.22;;;10.30;99.90;;;;;;5093980;28;20081;-59
2023/12/24 00:57:20;;;;;;;13.50;2.25;;;10.60;99.90;;;;;;5094339;28;20036;-59
2023/12/24 00:59:46;;;;;;;13.57;2.15;;;10.70;99.90;;;;;;5093791;28;20101;-59
2023/12/24 01:02:11;;;;;;;13.13;2.08;;;10.30;99.90;;;;;;5093781;28;20085;-58
2023/12/24 01:04:37;;;;;;;7.93;1.67;;;10.10;99.90;;;;;;5093870;28;20042;-60
2023/12/24 01:07:03;;;;;;;10.48;1.83;;;10.10;99.90;;;;;;5094087;28;20460;-58
2023/12/24 01:09:28;;;;;;;11.10;1.80;;;10.60;99.90;;;;;;5093295;28;20043;-58
2023/12/24 01:11:54;;;;;;;17.23;2.38;;;10.20;99.90;;;;;;5093555;28;20086;-58
2023/12/24 01:14:20;;;;;;;14.45;2.20;;;10.80;99.90;;;;;;5112238;28;20066;-58
2023/12/24 01:16:45;;;;;;;9.63;1.73;;;10.50;99.90;;;;;;5100371;28;20059;-59
2023/12/24 01:19:12;;;;;;;9.63;1.73;;;10.80;99.90;;;;;;5112108;28;20071;-59
2023/12/24 01:21:37;;;;;;;13.75;2.10;;;10.80;99.90;;;;;;5114199;28;20040;-59
2023/12/24 01:24:03;;;;;;;15.57;1.88;;;10.20;99.90;;;;;;5106720;28;20031;-58
2023/12/24 01:26:29;;;;;;;11.80;2.05;;;10.90;99.90;;;;;;5092780;28;20086;-58
2023/12/24 01:28:55;;;;;;;15.77;1.92;;;10.70;99.90;;;;;;5093193;28;20043;-58
2023/12/24 01:31:20;;;;;;;16.88;2.40;;;10.40;99.90;;;;;;5093491;28;20084;-58
2023/12/24 01:33:46;;;;;;;11.15;1.67;;;10.30;99.90;;;;;;5093509;28;20040;-59
2023/12/24 01:36:12;;;;;;;15.95;1.73;;;10.80;99.90;;;;;;5093803;28;20038;-58
2023/12/24 01:38:37;;;;;;;11.77;2.03;;;10.50;99.90;;;;;;5093085;28;20072;-58
2023/12/24 01:41:03;;;;;;;10.77;1.65;;;10.80;99.90;;;;;;5093426;28;20065;-59
2023/12/24 01:43:29;;;;;;;9.90;1.75;;;10.30;99.90;;;;;;5093147;28;20399;-59
2023/12/24 01:45:55;;;;;;;13.50;2.13;;;10.10;99.90;;;;;;5092723;28;20040;-59
2023/12/24 01:48:23;;;;;;;15.93;2.47;;;10.20;99.90;;;;;;5092761;28;20086;-59
2023/12/24 01:50:49;;;;;;;9.18;1.83;;;10.00;99.90;;;;;;5092774;28;20044;-59
2023/12/24 01:53:17;;;;;;;10.88;1.88;;;10.40;99.90;;;;;;5092633;28;20098;-60
2023/12/24 01:55:44;;;;;;;10.27;2.63;;;10.10;99.90;;;;;;5093159;28;20028;-59
2023/12/24 01:58:09;;;;;;;16.83;2.58;;;10.10;99.90;;;;;;5093142;28;20036;-59
2023/12/24 02:00:36;;;;;;;18.88;3.03;;;10.70;99.90;;;;;;5092766;28;20090;-59
2023/12/24 02:03:04;;;;;;;13.82;2.25;;;10.30;99.90;;;;;;5092510;28;20043;-59
2023/12/24 02:05:29;;;;;;;11.13;2.17;;;10.20;99.90;;;;;;5111408;28;20054;-59
2023/12/24 02:07:56;;;;;;;14.77;2.58;;;10.70;99.90;;;;;;5113004;28;20027;-58
2023/12/24 02:10:22;;;;;;;13.00;3.10;;;10.70;99.90;;;;;;5093665;28;20387;-59
2023/12/24 02:12:49;;;;;;;15.52;2.45;;;10.10;99.90;;;;;;5110811;28;20043;-59
2023/12/24 02:15:15;;;;;;;12.40;2.80;;;9.90;99.90;;;;;;5111145;28;20118;-59
2023/12/24 02:17:43;;;;;;;15.80;2.10;;;10.60;99.90;;;;;;5111044;27;20181;-59
2023/12/24 02:20:09;;;;;;;9.52;1.83;;;10.60;99.90;;;;;;5112676;28;20502;-60
2023/12/24 02:22:35;;;;;;;10.23;2.13;;;10.70;99.90;;;;;;5111688;28;20424;-60
2023/12/24 02:25:02;;;;;;;16.58;2.95;;;10.00;99.90;;;;;;5112970;28;20035;-60
2023/12/24 02:27:51;;;;;;;10.82;2.20;;;10.70;99.90;;;;;;5112821;28;20028;-59
2023/12/24 02:30:26;;;;;;;7.57;2.10;;;10.20;99.90;;;;;;5094670;28;20508;-59
2023/12/24 02:32:56;;;;;;;7.15;2.25;;;10.00;99.90;;;;;;5091973;28;20061;-59
2023/12/24 02:35:23;;;;;;;13.48;2.78;;;10.30;99.90;;;;;;5092270;28;20498;-58
2023/12/24 02:37:49;;;;;;;11.90;2.50;;;10.70;99.90;;;;;;5110491;28;20043;-58
2023/12/24 02:40:15;;;;;;;10.68;2.95;;;10.00;99.90;;;;;;5112425;28;20043;-59
2023/12/24 02:42:40;;;;;;;12.63;2.80;;;10.30;99.90;;;;;;5112699;28;20114;-60
2023/12/24 02:45:06;;;;;;;15.88;3.17;;;10.50;99.90;;;;;;5094018;28;20043;-58
2023/12/24 02:47:32;;;;;;;11.93;3.67;;;9.90;99.90;;;;;;5111779;28;20036;-59
2023/12/24 02:49:58;;;;;;;7.35;2.58;;;10.00;99.90;;;;;;5111886;28;20048;-59
2023/12/24 02:52:23;;;;;;;11.77;3.00;;;10.30;99.90;;;;;;5095236;28;20071;-58
2023/12/24 02:54:49;;;;;;;12.10;3.05;;;10.70;99.90;;;;;;5091833;28;20048;-59
2023/12/24 02:57:15;;;;;;;10.68;2.63;;;10.50;99.90;;;;;;5091910;28;20116;-59
2023/12/24 02:59:41;;;;;;;15.90;3.40;;;10.70;99.90;;;;;;5091833;28;20036;-59
2023/12/24 03:02:07;;;;;;;18.35;3.45;;;9.90;99.90;;;;;;5091175;28;20051;-59
2023/12/24 03:04:32;;;;;;;15.23;4.03;;;10.80;99.90;;;;;;5091605;28;20043;-59
2023/12/24 03:06:58;;;;;;;12.25;3.03;;;10.00;99.90;;;;;;5091348;28;20048;-59
2023/12/24 03:09:23;;;;;;;11.90;2.92;;;10.70;99.90;;;;;;5091519;28;20075;-59
2023/12/24 03:11:50;;;;;;;11.75;3.13;;;10.60;99.90;;;;;;5091686;28;20085;-60
2023/12/24 03:14:16;;;;;;;14.35;3.60;;;10.50;99.90;;;;;;5090832;28;20050;-59
2023/12/24 03:16:41;;;;;;;15.00;3.38;;;10.00;99.90;;;;;;5090749;28;20036;-60
2023/12/24 03:19:07;;;;;;;16.23;3.33;;;9.90;99.90;;;;;;5091505;28;20471;-60
2023/12/24 03:21:33;;;;;;;11.77;3.42;;;10.70;99.90;;;;;;5111953;28;20112;-60
2023/12/24 03:23:58;;;;;;;11.90;3.55;;;10.20;99.90;;;;;;5111729;28;20035;-59
2023/12/24 03:26:24;;;;;;;12.73;2.83;;;10.70;99.90;;;;;;5111407;28;20398;-59
2023/12/24 03:28:50;;;;;;;13.60;3.22;;;10.20;99.90;;;;;;5111627;27;20039;-59
2023/12/24 03:31:17;;;;;;;10.10;2.50;;;10.70;99.90;;;;;;5111952;28;20490;-59
2023/12/24 03:33:42;;;;;;;9.82;2.70;;;10.20;99.90;;;;;;5099374;28;20107;-59
2023/12/24 03:36:09;;;;;;;9.13;2.83;;;10.20;99.90;;;;;;5091204;28;20110;-60
2023/12/24 03:38:36;;;;;;;12.50;2.80;;;10.00;99.90;;;;;;5109371;28;20627;-60
2023/12/24 03:41:02;;;;;;;7.75;2.35;;;10.90;99.90;;;;;;5111563;28;20070;-58
2023/12/24 03:43:29;;;;;;;6.85;1.80;;;10.70;99.90;;;;;;5111659;28;20386;-59
2023/12/24 03:45:54;;;;;;;7.93;2.50;;;10.60;99.90;;;;;;5111283;28;20471;-60
2023/12/24 03:48:20;;;;;;;8.07;2.30;;;10.90;99.90;;;;;;5111178;28;20031;-60
2023/12/24 03:50:47;;;;;;;8.55;2.20;;;10.40;99.90;;;;;;5111140;28;20089;-60
2023/12/24 03:53:12;;;;;;;8.95;3.08;;;10.20;99.90;;;;;;5111353;28;20535;-59
2023/12/24 03:55:38;;;;;;;6.97;2.15;;;10.60;99.90;;;;;;5111453;28;20032;-59
2023/12/24 03:58:04;;;;;;;9.68;2.10;;;10.20;99.90;;;;;;5111059;28;20064;-59
2023/12/24 04:00:29;;;;;;;7.47;2.03;;;10.80;99.90;;;;;;5092559;28;20043;-59
2023/12/24 04:02:55;;;;;;;9.70;2.53;;;10.20;99.90;;;;;;5090096;28;20039;-60
2023/12/24 04:05:21;;;;;;;7.65;3.35;;;10.50;99.90;;;;;;5090379;28;20090;-59
2023/12/24 04:07:47;;;;;;;7.93;1.83;;;10.80;99.90;;;;;;5109925;28;20120;-59
2023/12/24 04:10:13;;;;;;;5.57;1.98;;;10.80;99.90;;;;;;5110798;28;20067;-59
2023/12/24 04:12:40;;;;;;;6.30;2.15;;;10.50;99.90;;;;;;5105780;28;20039;-58
2023/12/24 04:15:07;;;;;;;9.25;2.90;;;10.80;99.90;;;;;;5090769;28;20406;-60
2023/12/24 04:17:36;;;;;;;6.28;1.98;;;10.90;99.90;;;;;;5090706;28;20379;-59
2023/12/24 04:20:03;;;;;;;9.85;2.30;;;11.10;99.90;;;;;;5108309;28;20478;-58
2023/12/24 04:22:30;;;;;;;7.43;2.00;;;11.00;99.90;;;;;;5111212;28;21230;-59
2023/12/24 04:24:56;;;;;;;5.50;2.08;;;10.40;99.90;;;;;;5098037;28;20032;-59
2023/12/24 04:27:22;;;;;;;7.43;1.52;;;10.80;99.90;;;;;;5093556;28;20031;-59
2023/12/24 04:29:48;;;;;;;6.60;2.13;;;10.50;99.90;;;;;;5094320;28;20048;-59
2023/12/24 04:32:13;;;;;;;6.18;1.90;;;10.30;99.90;;;;;;5094927;28;20138;-59
2023/12/24 04:34:39;;;;;;;3.83;1.80;;;10.70;99.90;;;;;;5094762;28;20039;-59
2023/12/24 04:37:05;;;;;;;5.43;1.98;;;10.50;99.90;;;;;;5094751;28;20024;-59
2023/12/24 04:39:30;;;;;;;6.85;1.92;;;11.00;99.90;;;;;;5094530;28;20039;-59
2023/12/24 04:41:56;;;;;;;7.03;1.90;;;10.90;99.90;;;;;;5094747;28;20043;-59
2023/12/24 04:44:22;;;;;;;5.40;1.95;;;10.70;99.90;;;;;;5093932;28;20126;-59
2023/12/24 04:46:48;;;;;;;8.88;2.00;;;10.70;99.90;;;;;;5093949;28;20036;-59
2023/12/24 04:49:14;;;;;;;6.47;2.00;;;11.20;99.90;;;;;;5093633;28;20118;-60
2023/12/24 04:51:42;;;;;;;9.77;1.70;;;11.10;99.90;;;;;;5112516;28;20440;-60
2023/12/24 04:54:08;;;;;;;4.32;1.75;;;11.20;99.90;;;;;;5114239;28;20031;-59
2023/12/24 04:56:33;;;;;;;5.50;1.90;;;10.70;99.90;;;;;;5114695;28;20039;-60
2023/12/24 04:59:00;;;;;;;7.88;1.92;;;11.10;99.90;;;;;;5114730;28;20044;-59
2023/12/24 05:01:25;;;;;;;5.78;1.80;;;10.60;99.90;;;;;;5114645;28;20153;-60
2023/12/24 05:03:51;;;;;;;6.47;1.85;;;11.30;99.90;;;;;;5114786;28;20122;-59
2023/12/24 05:06:17;;;;;;;4.85;1.80;;;11.10;99.90;;;;;;5114245;28;20043;-59
2023/12/24 05:08:43;;;;;;;9.32;2.03;;;11.00;99.90;;;;;;5114106;28;20039;-60
2023/12/24 05:11:09;;;;;;;6.60;2.08;;;11.00;99.90;;;;;;5107029;28;20088;-60
2023/12/24 05:13:38;;;;;;;8.27;2.42;;;11.20;99.90;;;;;;5113955;28;20392;-59
2023/12/24 05:16:05;;;;;;;6.90;2.25;;;11.20;99.90;;;;;;5113887;28;20028;-60
2023/12/24 05:18:33;;;;;;;6.00;2.13;;;10.70;99.90;;;;;;5114400;28;20077;-58
2023/12/24 05:20:58;;;;;;;12.25;2.33;;;11.20;99.90;;;;;;5113265;27;20051;-59
2023/12/24 05:23:25;;;;;;;9.80;3.03;;;11.20;99.90;;;;;;5113849;28;20394;-59
2023/12/24 05:25:51;;;;;;;6.05;2.35;;;10.60;99.90;;;;;;5091560;28;20036;-59
2023/12/24 05:28:17;;;;;;;15.63;3.33;;;10.90;99.90;;;;;;5093378;28;20055;-58
2023/12/24 05:30:46;;;;;;;7.57;2.90;;;11.00;99.90;;;;;;5093369;28;20098;-58
2023/12/24 05:33:12;;;;;;;9.48;3.67;;;10.90;99.90;;;;;;5092394;28;20032;-59
2023/12/24 05:35:38;;;;;;;9.23;2.97;;;11.10;99.90;;;;;;5093584;28;20101;-59
2023/12/24 05:38:04;;;;;;;9.93;3.45;;;11.00;99.90;;;;;;5093032;28;20358;-59
2023/12/24 05:40:30;;;;;;;9.00;3.67;;;10.70;99.90;;;;;;5093172;28;20204;-59
2023/12/24 05:42:56;;;;;;;14.80;4.65;;;11.20;99.90;;;;;;5101201;28;20040;-59
2023/12/24 05:45:21;;;;;;;14.10;4.28;;;10.90;99.90;;;;;;5113855;28;20419;-59
2023/12/24 05:47:47;;;;;;;12.85;4.18;;;11.10;99.90;;;;;;5113424;28;20463;-59
2023/12/24 05:50:13;;;;;;;14.20;4.63;;;10.80;99.90;;;;;;5104712;28;20414;-59
2023/12/24 05:52:41;;;;;;;14.07;4.40;;;10.80;99.90;;;;;;5093016;28;20094;-58
2023/12/24 05:55:07;;;;;;;18.15;4.30;;;11.00;99.90;;;;;;5092636;28;20094;-58
2023/12/24 05:57:34;;;;;;;21.77;5.13;;;11.10;99.90;;;;;;5093237;28;20036;-59
2023/12/24 05:59:59;;;;;;;18.33;5.82;;;11.00;99.90;;;;;;5093109;28;20429;-59
2023/12/24 06:02:25;;;;;;;23.42;5.28;;;11.20;99.90;;;;;;5094845;28;20042;-59
2023/12/24 06:04:51;;;;;;;19.80;6.65;;;11.00;99.90;;;;;;5093219;28;20426;-59
2023/12/24 06:07:16;;;;;;;18.85;4.13;;;11.30;99.90;;;;;;5092823;28;20044;-59
2023/12/24 06:09:42;;;;;;;21.95;5.40;;;10.90;99.90;;;;;;5091497;28;20036;-58
2023/12/24 06:12:08;;;;;;;14.05;3.92;;;10.80;99.90;;;;;;5092625;28;20107;-59
2023/12/24 06:14:34;;;;;;;19.27;4.53;;;11.00;99.90;;;;;;5092544;28;20495;-59
2023/12/24 06:16:59;;;;;;;20.55;5.53;;;10.90;99.90;;;;;;5094855;28;20043;-58
2023/12/24 06:19:25;;;;;;;16.08;4.05;;;11.10;99.90;;;;;;5092695;28;20031;-58
2023/12/24 06:21:51;;;;;;;17.13;3.42;;;10.90;99.90;;;;;;5092181;28;20082;-58
2023/12/24 06:24:21;;;;;;;17.90;4.38;;;11.00;99.90;;;;;;5092757;28;20083;-58
2023/12/24 06:26:51;;;;;;;21.77;5.20;;;10.90;99.90;;;;;;5092529;28;20403;-57
2023/12/24 06:29:17;;;;;;;15.32;4.57;;;11.10;99.90;;;;;;5092663;28;20628;-58
2023/12/24 06:31:43;;;;;;;19.80;4.88;;;11.50;99.90;;;;;;5092483;28;20125;-58
2023/12/24 06:34:11;;;;;;;24.88;4.35;;;11.00;99.90;;;;;;5092513;28;20079;-58
2023/12/24 06:36:37;;;;;;;22.23;4.43;;;11.10;99.90;;;;;;5092468;28;20032;-58
2023/12/24 06:39:02;;;;;;;25.17;4.57;;;11.50;99.90;;;;;;5091692;28;20494;-58
2023/12/24 06:41:28;;;;;;;22.27;4.32;;;11.10;99.90;;;;;;5092247;28;20047;-58
2023/12/24 06:43:54;;;;;;;16.58;4.03;;;11.10;99.90;;;;;;5092242;28;20127;-58
2023/12/24 06:46:20;;;;;;;21.73;4.57;;;11.20;99.90;;;;;;5091830;28;20098;-58
2023/12/24 06:48:46;;;;;;;22.38;4.35;;;11.10;99.90;;;;;;5091797;28;20047;-57
2023/12/24 06:51:12;;;;;;;20.15;5.35;;;11.20;99.90;;;;;;5108061;28;20055;-58
2023/12/24 06:53:38;;;;;;;19.73;3.88;;;11.70;99.90;;;;;;5112379;28;20070;-58
2023/12/24 06:56:04;;;;;;;20.67;3.80;;;11.70;99.90;;;;;;5112467;28;20454;-57
2023/12/24 06:58:30;;;;;;;20.65;4.13;;;11.40;99.90;;;;;;5112622;28;20028;-58
2023/12/24 07:00:55;;;;;;;19.98;4.55;;;11.20;99.90;;;;;;5112434;28;20093;-57
2023/12/24 07:03:21;;;;;;;23.08;5.15;;;11.50;99.90;;;;;;5111610;28;20039;-58
2023/12/24 07:05:47;;;;;;;24.25;4.57;;;11.20;99.90;;;;;;5091648;28;20059;-58
2023/12/24 07:08:12;;;;;;;25.65;5.00;;;11.30;99.90;;;;;;5091728;28;20039;-58
2023/12/24 07:10:38;;;;;;;19.65;4.85;;;11.40;99.90;;;;;;5107262;28;20452;-57
2023/12/24 07:13:04;;;;;;;24.40;5.32;;;11.50;99.90;;;;;;5111886;28;20072;-57
2023/12/24 07:15:38;;;;;;;23.35;4.80;;;11.50;99.90;;;;;;5111981;28;20035;-58
2023/12/24 07:18:04;;;;;;;30.52;5.35;;;11.30;99.90;;;;;;5111227;28;20045;-57
2023/12/24 07:20:30;;;;;;;21.42;5.32;;;11.70;99.90;;;;;;5093323;28;20036;-58
2023/12/24 07:22:56;;;;;;;25.13;6.82;;;11.70;99.90;;;;;;5091482;28;20086;-58
2023/12/24 07:25:21;;;;;;;26.88;5.10;;;11.80;99.90;;;;;;5091539;28;20383;-58
2023/12/24 07:27:47;;;;;;;20.25;5.10;;;11.40;99.90;;;;;;5091603;28;20052;-58
2023/12/24 07:30:13;;;;;;;24.88;4.97;;;11.80;99.90;;;;;;5091535;28;20542;-57
2023/12/24 07:32:45;;;;;;;19.85;4.20;;;11.50;99.90;;;;;;5091257;28;20028;-58
2023/12/24 07:35:12;;;;;;;21.42;4.45;;;11.80;99.90;;;;;;5091417;28;20039;-58
2023/12/24 07:37:38;;;;;;;26.88;4.65;;;11.50;99.90;;;;;;5091350;28;20028;-58
2023/12/24 07:40:08;;;;;;;22.73;4.53;;;11.40;99.90;;;;;;5091197;28;20144;-58
2023/12/24 07:42:35;;;;;;;19.63;4.07;;;11.70;99.90;;;;;;5090959;28;20047;-57
2023/12/24 07:45:03;;;;;;;22.25;3.88;;;11.70;99.90;;;;;;5089930;28;20052;-57
2023/12/24 07:47:29;;;;;;;26.15;4.38;;;11.90;99.90;;;;;;5090277;28;20079;-57
2023/12/24 07:49:54;;;;;;;27.45;5.00;;;11.70;99.90;;;;;;5090182;28;20149;-57
2023/12/24 07:52:20;;;;;;;25.65;4.60;;;11.70;99.90;;;;;;5089295;28;20551;-58
2023/12/24 07:54:46;;;;;;;28.75;4.45;;;11.80;99.90;;;;;;5090796;28;20059;-58
2023/12/24 07:57:11;;;;;;;24.35;4.07;;;11.60;99.90;;;;;;5090976;28;20032;-57
2023/12/24 07:59:37;;;;;;;27.23;5.22;;;12.10;99.90;;;;;;5090903;28;20048;-58
2023/12/24 08:02:03;;;;;;;36.65;4.70;;;11.60;99.90;;;;;;5090690;28;20036;-57
2023/12/24 08:04:30;;;;;;;24.25;4.47;;;12.20;99.90;;;;;;5090435;28;20038;-57
2023/12/24 08:06:55;;;;;;;23.17;4.22;;;12.10;99.90;;;;;;5090432;28;20036;-57
2023/12/24 08:09:21;;;;;;;27.88;4.03;;;12.20;99.90;;;;;;5090732;28;20036;-58
2023/12/24 08:11:47;;;;;;;25.17;3.70;;;12.10;99.90;;;;;;5091272;28;20095;-57
2023/12/24 08:14:12;;;;;;;24.02;3.40;;;11.70;99.90;;;;;;5088637;28;20040;-57
2023/12/24 08:16:38;;;;;;;20.65;3.15;;;12.20;99.90;;;;;;5099577;28;20070;-57
2023/12/24 08:19:05;;;;;;;22.90;4.03;;;11.90;99.90;;;;;;5110682;28;20417;-58
2023/12/24 08:21:31;;;;;;;21.48;4.10;;;11.70;99.90;;;;;;5111547;28;20370;-58
2023/12/24 08:23:57;;;;;;;19.48;3.75;;;11.80;99.90;;;;;;5111077;28;20035;-58
2023/12/24 08:26:22;;;;;;;23.33;3.63;;;12.10;99.90;;;;;;5110796;28;20379;-58
2023/12/24 08:28:48;;;;;;;22.88;5.18;;;12.00;99.90;;;;;;5088649;28;20577;-57
2023/12/24 08:31:14;;;;;;;16.45;3.20;;;12.00;99.90;;;;;;5082378;28;20434;-57
2023/12/24 08:33:39;;;;;;;17.58;3.50;;;11.80;99.90;;;;;;5083124;28;20100;-57
2023/12/24 08:36:06;;;;;;;21.45;3.72;;;12.50;99.90;;;;;;5080965;28;20048;-58
2023/12/24 08:38:32;;;;;;;23.88;3.35;;;12.20;99.90;;;;;;5082550;28;23518;-57
2023/12/24 08:40:58;;;;;;;18.23;3.33;;;12.40;99.90;;;;;;5083150;28;20044;-57
2023/12/24 08:43:23;;;;;;;28.20;3.45;;;12.40;99.90;;;;;;5081755;28;20059;-56
2023/12/24 08:45:50;;;;;;;17.60;3.25;;;12.40;99.90;;;;;;5083236;28;20036;-57
2023/12/24 08:48:16;;;;;;;23.48;3.13;;;12.30;99.90;;;;;;5082804;28;20072;-57
2023/12/24 08:50:41;;;;;;;18.80;3.65;;;12.60;99.90;;;;;;5081677;28;20440;-58
2023/12/24 08:53:07;;;;;;;21.75;3.53;;;12.50;99.90;;;;;;5082822;28;20028;-57
2023/12/24 08:55:33;;;;;;;19.98;3.63;;;12.50;99.90;;;;;;5110196;28;21053;-58
2023/12/24 08:57:59;;;;;;;19.55;4.32;;;12.20;99.90;;;;;;5081194;28;20032;-54
2023/12/24 09:00:25;;;;;;;20.35;3.22;;;12.30;99.90;;;;;;5083178;28;20024;-54
2023/12/24 09:02:51;;;;;;;12.13;3.25;;;12.30;99.90;;;;;;5081314;28;20059;-53
2023/12/24 09:05:19;;;;;;;21.05;3.50;;;12.50;99.90;;;;;;5081272;28;20268;-52
2023/12/24 09:07:45;;;;;;;10.70;3.03;;;12.20;99.90;;;;;;5082571;28;20047;-55
2023/12/24 09:10:11;;;;;;;15.52;3.33;;;12.50;99.90;;;;;;5081089;28;20052;-54
2023/12/24 09:12:38;;;;;;;13.98;3.25;;;12.60;99.90;;;;;;5083046;28;20036;-53
2023/12/24 09:15:04;;;;;;;14.43;2.55;;;12.70;99.90;;;;;;5086994;28;20110;-55
2023/12/24 09:17:30;;;;;;;14.25;2.88;;;12.70;99.90;;;;;;5084459;28;20028;-53
2023/12/24 09:19:56;;;;;;;9.27;2.50;;;12.40;99.90;;;;;;5086382;28;20089;-53
2023/12/24 09:22:21;;;;;;;19.70;2.88;;;12.20;99.90;;;;;;5086455;28;20044;-54
2023/12/24 09:24:47;;;;;;;17.00;3.17;;;12.20;99.90;;;;;;5090330;28;20098;-54
2023/12/24 09:27:13;;;;;;;18.63;3.03;;;12.50;99.90;;;;;;5091537;28;20074;-55
2023/12/24 09:29:39;;;;;;;18.42;2.97;;;12.60;99.90;;;;;;5090958;28;20104;-52
2023/12/24 09:32:05;;;;;;;13.90;3.25;;;12.30;99.90;;;;;;5091373;28;20051;-52
2023/12/24 09:34:30;;;;;;;13.90;3.25;;;12.70;99.90;;;;;;5092228;28;20036;-55
2023/12/24 09:36:56;;;;;;;19.83;2.60;;;12.70;99.90;;;;;;5093729;28;20397;-54
2023/12/24 09:39:22;;;;;;;12.23;2.47;;;12.80;99.90;;;;;;5093316;28;20399;-56
2023/12/24 09:41:48;;;;;;;15.05;2.63;;;12.60;99.90;;;;;;5093594;28;20036;-53
2023/12/24 09:44:14;;;;;;;15.85;3.25;;;12.80;99.90;;;;;;5093094;28;20181;-56
2023/12/24 09:46:40;;;;;;;13.05;2.63;;;12.40;99.90;;;;;;5093238;28;20119;-55
2023/12/24 09:49:05;;;;;;;18.05;2.65;;;12.60;99.90;;;;;;5092694;28;20047;-54
2023/12/24 09:51:37;;;;;;;15.40;2.22;;;12.90;99.90;;;;;;5092254;28;20051;-55
2023/12/24 09:54:04;;;;;;;18.35;3.03;;;13.00;99.90;;;;;;5092463;28;20096;-55
2023/12/24 09:56:29;;;;;;;17.92;2.97;;;12.90;99.90;;;;;;5092155;28;20036;-53
2023/12/24 09:58:55;;;;;;;18.85;3.15;;;13.00;99.90;;;;;;5093150;28;20038;-55
2023/12/24 10:01:21;;;;;;;16.35;2.60;;;12.50;99.90;;;;;;5111223;28;20035;-54
2023/12/24 10:03:47;;;;;;;21.48;2.72;;;12.40;99.90;;;;;;5093696;28;20043;-57
2023/12/24 10:06:14;;;;;;;17.17;2.67;;;13.10;99.90;;;;;;5092389;28;20111;-56
2023/12/24 10:08:40;;;;;;;20.25;2.92;;;12.90;99.90;;;;;;5092845;28;20032;-57
2023/12/24 10:11:25;;;;;;;21.38;3.13;;;12.50;99.90;;;;;;5092970;28;20038;-53
2023/12/24 10:14:03;;;;;;;16.75;3.88;;;12.60;99.90;;;;;;5092768;28;20071;-52
2023/12/24 10:16:29;;;;;;;15.48;2.95;;;13.10;99.90;;;;;;5082868;28;20106;-53
2023/12/24 10:18:55;;;;;;;17.55;2.85;;;13.00;99.90;;;;;;5083674;28;20382;-59
2023/12/24 10:21:20;;;;;;;13.68;3.38;;;12.60;99.90;;;;;;5084123;28;20028;-55
2023/12/24 10:23:46;;;;;;;18.20;3.17;;;13.00;99.90;;;;;;5087388;28;20101;-54
2023/12/24 10:26:12;;;;;;;15.23;2.95;;;12.90;99.90;;;;;;5085661;28;20031;-55
2023/12/24 10:28:49;;;;;;;16.75;3.92;;;12.70;99.90;;;;;;5083332;28;20098;-53
2023/12/24 10:31:14;;;;;;;15.75;2.90;;;12.90;99.90;;;;;;5082518;28;20079;-54
2023/12/24 10:33:41;;;;;;;12.48;2.10;;;13.10;99.90;;;;;;5088890;28;20075;-54
2023/12/24 10:36:07;;;;;;;20.60;2.92;;;12.80;99.90;;;;;;5085557;28;20119;-56
2023/12/24 10:38:35;;;;;;;12.40;2.28;;;12.70;99.90;;;;;;5065518;28;20225;-54
2023/12/24 10:41:07;;;;;;;11.27;2.35;;;13.20;99.90;;;;;;5086208;28;20518;-55
2023/12/24 10:43:33;;;;;;;12.73;2.55;;;12.90;99.90;;;;;;5087361;28;20097;-55
2023/12/24 10:45:59;;;;;;;18.52;2.58;;;13.20;99.90;;;;;;5082812;28;20111;-54
2023/12/24 10:48:25;;;;;;;15.38;2.75;;;13.30;99.90;;;;;;5083664;28;20050;-54
2023/12/24 10:50:50;;;;;;;16.83;2.65;;;13.30;99.90;;;;;;5087329;28;20055;-54
2023/12/24 10:53:16;;;;;;;19.10;2.75;;;12.80;99.90;;;;;;5088980;28;20036;-53
2023/12/24 10:55:51;;;;;;;11.85;2.72;;;13.00;99.90;;;;;;5089427;28;20406;-54
2023/12/24 10:58:37;;;;;;;12.63;2.85;;;13.00;99.90;;;;;;5090254;28;20035;-55
2023/12/24 11:01:08;;;;;;;12.90;2.42;;;12.90;99.90;;;;;;5091359;28;20126;-53
2023/12/24 11:03:44;;;;;;;12.18;2.58;;;13.70;99.90;;;;;;5091749;28;20048;-56
2023/12/24 11:06:10;;;;;;;19.20;3.53;;;13.70;99.90;;;;;;5110194;28;20096;-55
2023/12/24 11:08:36;;;;;;;16.25;2.40;;;13.60;99.90;;;;;;5100077;28;20043;-56
2023/12/24 11:11:04;;;;;;;11.85;2.78;;;13.50;99.90;;;;;;5091659;28;20043;-56
2023/12/24 11:13:33;;;;;;;10.73;2.10;;;12.80;99.90;;;;;;5110159;28;20085;-52
2023/12/24 11:15:59;;;;;;;13.10;2.33;;;13.00;99.90;;;;;;5112137;28;20037;-53
2023/12/24 11:18:48;;;;;;;14.40;2.30;;;13.40;99.90;;;;;;5111633;28;20567;-53
2023/12/24 11:21:19;;;;;;;14.82;2.55;;;13.70;99.90;;;;;;5111883;28;20070;-55
2023/12/24 11:24:23;;;;;;;13.27;2.20;;;12.90;99.90;;;;;;5110914;28;20078;-57
2023/12/24 11:26:53;;;;;;;10.82;2.40;;;13.50;99.90;;;;;;5104246;28;20055;-54
2023/12/24 11:29:41;;;;;;;14.68;2.55;;;13.40;99.90;;;;;;5090656;28;20055;-55
2023/12/24 11:32:25;;;;;;;11.35;2.22;;;12.70;99.90;;;;;;5091303;28;20040;-56
2023/12/24 11:34:52;;;;;;;12.32;2.63;;;13.20;99.90;;;;;;5091462;28;20386;-54
2023/12/24 11:37:39;;;;;;;12.52;3.13;;;13.00;99.90;;;;;;5090846;28;20036;-55
2023/12/24 11:40:15;;;;;;;13.68;2.88;;;12.90;99.90;;;;;;5091114;28;20051;-57
2023/12/24 11:42:49;;;;;;;13.40;3.10;;;12.80;99.90;;;;;;5089514;28;20051;-52
2023/12/24 11:45:29;;;;;;;11.70;2.65;;;13.60;99.90;;;;;;5099999;28;20394;-52
2023/12/24 11:47:55;;;;;;;11.60;2.38;;;13.20;99.90;;;;;;5084957;28;20040;-54
2023/12/24 11:50:21;;;;;;;16.40;2.58;;;12.80;99.90;;;;;;5089098;28;21218;-52
2023/12/24 11:52:48;;;;;;;12.13;2.22;;;13.70;99.90;;;;;;5088265;28;20051;-55
2023/12/24 11:55:17;;;;;;;14.45;2.30;;;13.80;99.90;;;;;;5085774;28;20044;-54
2023/12/24 11:57:44;;;;;;;13.02;1.95;;;13.10;99.90;;;;;;5083139;28;20463;-56
2023/12/24 12:00:23;;;;;;;13.23;2.10;;;13.70;99.90;;;;;;5081905;28;20051;-55
2023/12/24 12:02:59;;;;;;;13.02;2.20;;;13.60;99.90;;;;;;5082700;28;20043;-55
2023/12/24 12:05:25;;;;;;;15.38;2.90;;;12.80;99.90;;;;;;5083695;28;20048;-55
2023/12/24 12:07:52;;;;;;;13.43;2.55;;;13.40;99.90;;;;;;5082134;28;20048;-54
2023/12/24 12:10:18;;;;;;;14.80;2.92;;;13.80;99.90;;;;;;5088173;28;20467;-57
2023/12/24 12:12:44;;;;;;;16.13;3.53;;;13.90;99.90;;;;;;5086748;28;20036;-55
2023/12/24 12:15:11;;;;;;;16.30;2.75;;;13.80;99.90;;;;;;5083779;28;20570;-55
2023/12/24 12:17:36;;;;;;;15.40;3.20;;;12.80;99.90;;;;;;5088890;28;20169;-51
2023/12/24 12:20:05;;;;;;;18.90;2.95;;;13.60;99.90;;;;;;5089462;28;20126;-52
2023/12/24 12:22:31;;;;;;;17.38;3.63;;;12.80;99.90;;;;;;5088751;28;20035;-55
2023/12/24 12:24:57;;;;;;;15.95;2.55;;;13.70;99.90;;;;;;5089979;28;20044;-51
2023/12/24 12:27:24;;;;;;;15.05;3.70;;;12.80;99.90;;;;;;5089582;28;20406;-55
2023/12/24 12:29:50;;;;;;;15.38;2.17;;;13.00;99.90;;;;;;5089505;28;20098;-56
2023/12/24 12:32:16;;;;;;;14.23;2.90;;;13.80;99.90;;;;;;5088708;28;20391;-54
2023/12/24 12:34:43;;;;;;;14.23;3.33;;;12.80;99.90;;;;;;5089706;28;20504;-53
2023/12/24 12:37:09;;;;;;;12.75;2.88;;;12.80;99.90;;;;;;5086378;28;20047;-54